sensor_id;sensor_type;location;lat;lon;timestamp;pressure;altitude;pressure_sealevel;temperature;humidity
62634;BME280;48704;50.534;6.442;2024-01-30T00:00:28;96609.84;;;6.98;100.00
62634;BME280;48704;50.534;6.442;2024-01-30T00:02:54;96599.97;;;6.97;100.00
62634;BME280;48704;50.534;6.442;2024-01-30T00:05:19;96599.09;;;7.00;100.00
62634;BME280;48704;50.534;6.442;2024-01-30T00:07:44;96600.66;;;7.01;100.00
62634;BME280;48704;50.534;6.442;2024-01-30T00:10:10;96596.06;;;6.94;100.00
62634;BME280;48704;50.534;6.442;2024-01-30T00:12:35;96592.00;;;6.99;100.00
62634;BME280;48704;50.534;6.442;2024-01-30T00:15:00;96598.91;;;6.91;100.00
62634;BME280;48704;50.534;6.442;2024-01-30T00:17:25;96595.34;;;6.90;100.00
62634;BME280;48704;50.534;6.442;2024-01-30T00:19:51;96590.94;;;6.93;100.00
62634;BME280;48704;50.534;6.442;2024-01-30T00:22:17;96589.03;;;6.90;100.00
62634;BME280;48704;50.534;6.442;2024-01-30T00:24:42;96583.63;;;6.83;100.00
62634;BME280;48704;50.534;6.442;2024-01-30T00:27:08;96594.09;;;6.75;100.00
62634;BME280;48704;50.534;6.442;2024-01-30T00:29:33;96590.25;;;6.69;100.00
62634;BME280;48704;50.534;6.442;2024-01-30T00:31:59;96584.22;;;6.74;100.00
62634;BME280;48704;50.534;6.442;2024-01-30T00:34:25;96594.34;;;6.64;100.00
62634;BME280;48704;50.534;6.442;2024-01-30T00:36:50;96582.72;;;6.69;100.00
62634;BME280;48704;50.534;6.442;2024-01-30T00:39:15;96591.03;;;6.69;100.00
62634;BME280;48704;50.534;6.442;2024-01-30T00:41:41;96583.19;;;6.68;100.00
62634;BME280;48704;50.534;6.442;2024-01-30T00:44:06;96586.38;;;6.66;100.00
62634;BME280;48704;50.534;6.442;2024-01-30T00:46:31;96585.50;;;6.69;100.00
62634;BME280;48704;50.534;6.442;2024-01-30T00:48:57;96587.22;;;6.63;100.00
62634;BME280;48704;50.534;6.442;2024-01-30T00:51:22;96588.63;;;6.71;100.00
62634;BME280;48704;50.534;6.442;2024-01-30T00:53:47;96585.50;;;6.69;100.00
62634;BME280;48704;50.534;6.442;2024-01-30T00:56:12;96588.19;;;6.73;100.00
62634;BME280;48704;50.534;6.442;2024-01-30T00:58:38;96590.25;;;6.69;100.00
62634;BME280;48704;50.534;6.442;2024-01-30T01:01:03;96584.88;;;6.62;100.00
62634;BME280;48704;50.534;6.442;2024-01-30T01:03:28;96592.75;;;6.63;100.00
62634;BME280;48704;50.534;6.442;2024-01-30T01:05:54;96590.00;;;6.63;100.00
62634;BME280;48704;50.534;6.442;2024-01-30T01:08:19;96583.06;;;6.71;100.00
62634;BME280;48704;50.534;6.442;2024-01-30T01:10:45;96582.41;;;6.67;100.00
62634;BME280;48704;50.534;6.442;2024-01-30T01:13:10;96584.63;;;6.72;100.00
62634;BME280;48704;50.534;6.442;2024-01-30T01:15:36;96583.94;;;6.68;100.00
62634;BME280;48704;50.534;6.442;2024-01-30T01:18:02;96589.47;;;6.68;100.00
62634;BME280;48704;50.534;6.442;2024-01-30T01:20:27;96585.50;;;6.69;100.00
62634;BME280;48704;50.534;6.442;2024-01-30T01:22:52;96583.59;;;6.66;100.00
62634;BME280;48704;50.534;6.442;2024-01-30T01:25:18;96585.16;;;6.67;100.00
62634;BME280;48704;50.534;6.442;2024-01-30T01:27:43;96586.38;;;6.66;100.00
62634;BME280;48704;50.534;6.442;2024-01-30T01:30:10;96580.47;;;6.64;100.00
62634;BME280;48704;50.534;6.442;2024-01-30T01:32:36;96588.78;;;6.64;100.00
62634;BME280;48704;50.534;6.442;2024-01-30T01:35:03;96582.91;;;6.62;100.00
62634;BME280;48704;50.534;6.442;2024-01-30T01:37:30;96582.53;;;6.60;100.00
62634;BME280;48704;50.534;6.442;2024-01-30T01:39:56;96582.53;;;6.60;100.00
62634;BME280;48704;50.534;6.442;2024-01-30T01:42:21;96575.63;;;6.68;100.00
62634;BME280;48704;50.534;6.442;2024-01-30T01:44:47;96568.97;;;6.66;100.00
62634;BME280;48704;50.534;6.442;2024-01-30T01:47:12;96571.81;;;6.62;100.00
62634;BME280;48704;50.534;6.442;2024-01-30T01:49:38;96569.84;;;6.63;100.00
62634;BME280;48704;50.534;6.442;2024-01-30T01:52:04;96563.88;;;6.64;100.00
62634;BME280;48704;50.534;6.442;2024-01-30T01:54:29;96565.94;;;6.60;100.00
62634;BME280;48704;50.534;6.442;2024-01-30T01:56:55;96568.19;;;6.65;100.00
62634;BME280;48704;50.534;6.442;2024-01-30T01:59:22;96558.31;;;6.64;100.00
62634;BME280;48704;50.534;6.442;2024-01-30T02:01:48;96563.34;;;6.69;100.00
62634;BME280;48704;50.534;6.442;2024-01-30T02:04:14;96553.31;;;6.76;100.00
62634;BME280;48704;50.534;6.442;2024-01-30T02:06:40;96557.78;;;6.69;100.00
62634;BME280;48704;50.534;6.442;2024-01-30T02:09:06;96544.84;;;6.83;100.00
62634;BME280;48704;50.534;6.442;2024-01-30T02:11:32;96551.94;;;6.84;100.00
62634;BME280;48704;50.534;6.442;2024-01-30T02:14:02;96564.09;;;6.90;100.00
62634;BME280;48704;50.534;6.442;2024-01-30T02:16:28;96569.28;;;6.88;100.00
62634;BME280;48704;50.534;6.442;2024-01-30T02:18:53;96566.16;;;6.86;100.00
62634;BME280;48704;50.534;6.442;2024-01-30T02:21:19;96557.41;;;6.87;100.00
62634;BME280;48704;50.534;6.442;2024-01-30T02:23:46;96563.09;;;6.80;100.00
62634;BME280;48704;50.534;6.442;2024-01-30T02:26:12;96557.66;;;6.77;100.00
62634;BME280;48704;50.534;6.442;2024-01-30T02:28:37;96566.31;;;6.79;100.00
62634;BME280;48704;50.534;6.442;2024-01-30T02:31:03;96561.28;;;6.74;100.00
62634;BME280;48704;50.534;6.442;2024-01-30T02:33:28;96556.78;;;6.80;100.00
62634;BME280;48704;50.534;6.442;2024-01-30T02:35:53;96560.25;;;6.84;100.00
62634;BME280;48704;50.534;6.442;2024-01-30T02:38:19;96543.56;;;6.87;100.00
62634;BME280;48704;50.534;6.442;2024-01-30T02:40:44;96541.56;;;6.88;100.00
62634;BME280;48704;50.534;6.442;2024-01-30T02:43:09;96550.25;;;6.90;100.00
62634;BME280;48704;50.534;6.442;2024-01-30T02:45:34;96545.56;;;6.87;100.00
62634;BME280;48704;50.534;6.442;2024-01-30T02:48:00;96547.97;;;6.85;100.00
62634;BME280;48704;50.534;6.442;2024-01-30T02:50:25;96542.44;;;6.85;100.00
62634;BME280;48704;50.534;6.442;2024-01-30T02:52:50;96552.66;;;6.88;100.00
62634;BME280;48704;50.534;6.442;2024-01-30T02:55:16;96547.97;;;6.85;100.00
62634;BME280;48704;50.534;6.442;2024-01-30T02:57:44;96549.69;;;6.79;100.00
62634;BME280;48704;50.534;6.442;2024-01-30T03:00:10;96545.00;;;6.76;100.00
62634;BME280;48704;50.534;6.442;2024-01-30T03:02:36;96545.50;;;6.70;100.00
62634;BME280;48704;50.534;6.442;2024-01-30T03:05:01;96548.28;;;6.70;100.00
62634;BME280;48704;50.534;6.442;2024-01-30T03:07:28;96548.28;;;6.70;100.00
62634;BME280;48704;50.534;6.442;2024-01-30T03:09:54;96538.69;;;6.75;100.00
62634;BME280;48704;50.534;6.442;2024-01-30T03:12:20;96541.88;;;6.74;100.00
62634;BME280;48704;50.534;6.442;2024-01-30T03:14:46;96536.84;;;6.68;100.00
62634;BME280;48704;50.534;6.442;2024-01-30T03:17:11;96540.31;;;6.72;100.00
62634;BME280;48704;50.534;6.442;2024-01-30T03:19:36;96538.94;;;6.64;100.00
62634;BME280;48704;50.534;6.442;2024-01-30T03:22:01;96542.84;;;6.67;100.00
62634;BME280;48704;50.534;6.442;2024-01-30T03:24:27;96540.31;;;6.72;100.00
62634;BME280;48704;50.534;6.442;2024-01-30T03:26:53;96537.19;;;6.70;100.00
62634;BME280;48704;50.534;6.442;2024-01-30T03:29:18;96528.72;;;6.61;100.00
62634;BME280;48704;50.534;6.442;2024-01-30T03:31:43;96538.31;;;6.57;100.00
62634;BME280;48704;50.534;6.442;2024-01-30T03:34:09;96531.50;;;6.61;100.00
62634;BME280;48704;50.534;6.442;2024-01-30T03:36:34;96528.00;;;6.57;100.00
62634;BME280;48704;50.534;6.442;2024-01-30T03:39:00;96530.34;;;6.59;100.00
62634;BME280;48704;50.534;6.442;2024-01-30T03:41:25;96535.03;;;6.62;100.00
62634;BME280;48704;50.534;6.442;2024-01-30T03:43:50;96535.97;;;6.55;100.00
62634;BME280;48704;50.534;6.442;2024-01-30T03:46:16;96531.56;;;6.58;100.00
62634;BME280;48704;50.534;6.442;2024-01-30T03:48:41;96515.22;;;6.63;100.00
62634;BME280;48704;50.534;6.442;2024-01-30T03:51:06;96532.78;;;6.57;100.00
62634;BME280;48704;50.534;6.442;2024-01-30T03:53:31;96531.66;;;6.70;100.00
62634;BME280;48704;50.534;6.442;2024-01-30T03:55:57;96528.47;;;6.72;100.00
62634;BME280;48704;50.534;6.442;2024-01-30T03:58:22;96529.94;;;6.77;100.00
62634;BME280;48704;50.534;6.442;2024-01-30T04:00:48;96528.47;;;6.72;100.00
62634;BME280;48704;50.534;6.442;2024-01-30T04:03:14;96525.69;;;6.72;100.00
62634;BME280;48704;50.534;6.442;2024-01-30T04:05:40;96518.34;;;6.65;100.00
62634;BME280;48704;50.534;6.442;2024-01-30T04:08:06;96518.25;;;6.69;100.00
62634;BME280;48704;50.534;6.442;2024-01-30T04:10:31;96518.50;;;6.58;100.00
62634;BME280;48704;50.534;6.442;2024-01-30T04:12:56;96526.81;;;6.58;100.00
62634;BME280;48704;50.534;6.442;2024-01-30T04:15:22;96519.78;;;6.54;100.00
62634;BME280;48704;50.534;6.442;2024-01-30T04:17:47;96520.13;;;6.56;100.00
62634;BME280;48704;50.534;6.442;2024-01-30T04:20:16;96521.91;;;6.46;100.00
62634;BME280;48704;50.534;6.442;2024-01-30T04:22:44;96521.28;;;6.38;100.00
62634;BME280;48704;50.534;6.442;2024-01-30T04:25:11;96521.28;;;6.38;100.00
62634;BME280;48704;50.534;6.442;2024-01-30T04:27:36;96530.19;;;6.30;100.00
62634;BME280;48704;50.534;6.442;2024-01-30T04:30:02;96530.44;;;6.35;100.00
62634;BME280;48704;50.534;6.442;2024-01-30T04:32:27;96530.25;;;6.26;100.00
62634;BME280;48704;50.534;6.442;2024-01-30T04:34:52;96530.19;;;6.30;100.00
62634;BME280;48704;50.534;6.442;2024-01-30T04:37:17;96539.53;;;6.36;100.00
62634;BME280;48704;50.534;6.442;2024-01-30T04:39:43;96526.22;;;6.31;100.00
62634;BME280;48704;50.534;6.442;2024-01-30T04:42:08;96523.88;;;6.29;100.00
62634;BME280;48704;50.534;6.442;2024-01-30T04:44:33;96530.88;;;6.34;100.00
62634;BME280;48704;50.534;6.442;2024-01-30T04:46:58;96538.13;;;6.28;100.00
62634;BME280;48704;50.534;6.442;2024-01-30T04:49:26;96517.38;;;6.36;100.00
62634;BME280;48704;50.534;6.442;2024-01-30T04:51:51;96521.66;;;6.21;100.00
62634;BME280;48704;50.534;6.442;2024-01-30T04:54:17;96521.44;;;6.31;100.00
62634;BME280;48704;50.534;6.442;2024-01-30T04:56:42;96522.91;;;6.36;100.00
62634;BME280;48704;50.534;6.442;2024-01-30T04:59:07;96514.25;;;6.34;100.00
62634;BME280;48704;50.534;6.442;2024-01-30T05:01:33;96524.66;;;6.30;100.00
62634;BME280;48704;50.534;6.442;2024-01-30T05:03:59;96528.28;;;6.27;100.00
62634;BME280;48704;50.534;6.442;2024-01-30T05:06:25;96526.34;;;6.24;100.00
62634;BME280;48704;50.534;6.442;2024-01-30T05:08:50;96517.56;;;6.29;100.00
62634;BME280;48704;50.534;6.442;2024-01-30T05:11:16;96510.59;;;6.21;100.00
62634;BME280;48704;50.534;6.442;2024-01-30T05:13:41;96506.69;;;6.18;100.00
62634;BME280;48704;50.534;6.442;2024-01-30T05:16:06;96511.09;;;6.16;100.00
62634;BME280;48704;50.534;6.442;2024-01-30T05:18:32;96509.09;;;6.16;100.00
62634;BME280;48704;50.534;6.442;2024-01-30T05:20:57;96520.09;;;6.20;100.00
62634;BME280;48704;50.534;6.442;2024-01-30T05:23:22;96518.53;;;6.19;100.00
62634;BME280;48704;50.534;6.442;2024-01-30T05:25:47;96518.97;;;6.17;100.00
62634;BME280;48704;50.534;6.442;2024-01-30T05:28:13;96513.78;;;6.19;100.00
62634;BME280;48704;50.534;6.442;2024-01-30T05:30:39;96515.41;;;6.17;100.00
62634;BME280;48704;50.534;6.442;2024-01-30T05:33:04;96518.69;;;6.12;100.00
62634;BME280;48704;50.534;6.442;2024-01-30T05:35:29;96512.88;;;6.26;100.00
62634;BME280;48704;50.534;6.442;2024-01-30T05:37:55;96518.03;;;6.24;100.00
62634;BME280;48704;50.534;6.442;2024-01-30T05:40:20;96509.88;;;6.17;100.00
62634;BME280;48704;50.534;6.442;2024-01-30T05:42:45;96509.03;;;6.20;100.00
62634;BME280;48704;50.534;6.442;2024-01-30T05:45:11;96510.59;;;6.21;100.00
62634;BME280;48704;50.534;6.442;2024-01-30T05:47:36;96517.69;;;6.22;100.00
62634;BME280;48704;50.534;6.442;2024-01-30T05:50:01;96513.00;;;6.19;100.00
62634;BME280;48704;50.534;6.442;2024-01-30T05:52:26;96512.16;;;6.22;100.00
62634;BME280;48704;50.534;6.442;2024-01-30T05:54:52;96513.72;;;6.23;100.00
62634;BME280;48704;50.534;6.442;2024-01-30T05:57:17;96513.47;;;6.33;100.00
62634;BME280;48704;50.534;6.442;2024-01-30T05:59:43;96511.50;;;6.34;100.00
62634;BME280;48704;50.534;6.442;2024-01-30T06:02:10;96507.16;;;6.33;100.00
62634;BME280;48704;50.534;6.442;2024-01-30T06:04:35;96513.22;;;6.28;100.00
62634;BME280;48704;50.534;6.442;2024-01-30T06:07:01;96514.03;;;6.45;100.00
62634;BME280;48704;50.534;6.442;2024-01-30T06:09:27;96516.53;;;6.39;100.00
62634;BME280;48704;50.534;6.442;2024-01-30T06:11:52;96509.44;;;6.38;100.00
62634;BME280;48704;50.534;6.442;2024-01-30T06:14:17;96507.00;;;6.40;100.00
62634;BME280;48704;50.534;6.442;2024-01-30T06:16:43;96503.59;;;6.52;100.00
62634;BME280;48704;50.534;6.442;2024-01-30T06:19:08;96507.22;;;6.49;100.00
62634;BME280;48704;50.534;6.442;2024-01-30T06:21:33;96506.00;;;6.50;100.00
62634;BME280;48704;50.534;6.442;2024-01-30T06:24:02;96497.28;;;6.52;100.00
62634;BME280;48704;50.534;6.442;2024-01-30T06:26:27;96504.59;;;6.42;100.00
62634;BME280;48704;50.534;6.442;2024-01-30T06:28:52;96497.19;;;6.55;100.00
62634;BME280;48704;50.534;6.442;2024-01-30T06:31:17;96493.66;;;6.55;100.00
62634;BME280;48704;50.534;6.442;2024-01-30T06:33:43;96489.59;;;6.59;100.00
62634;BME280;48704;50.534;6.442;2024-01-30T06:36:08;96493.22;;;6.56;100.00
62634;BME280;48704;50.534;6.442;2024-01-30T06:38:33;96494.72;;;6.61;100.00
62634;BME280;48704;50.534;6.442;2024-01-30T06:40:58;96497.41;;;6.64;100.00
62634;BME280;48704;50.534;6.442;2024-01-30T06:43:24;96504.16;;;6.80;100.00
62634;BME280;48704;50.534;6.442;2024-01-30T06:45:49;96497.06;;;6.79;100.00
62634;BME280;48704;50.534;6.442;2024-01-30T06:48:15;96498.09;;;6.85;100.00
62634;BME280;48704;50.534;6.442;2024-01-30T06:50:40;96507.13;;;6.89;100.00
62634;BME280;48704;50.534;6.442;2024-01-30T06:53:06;96498.97;;;6.82;100.00
62634;BME280;48704;50.534;6.442;2024-01-30T06:55:31;96498.97;;;6.82;100.00
62634;BME280;48704;50.534;6.442;2024-01-30T06:57:56;96504.78;;;6.87;100.00
62634;BME280;48704;50.534;6.442;2024-01-30T07:00:21;96487.34;;;6.70;100.00
62634;BME280;48704;50.534;6.442;2024-01-30T07:02:47;96497.41;;;6.81;100.00
62634;BME280;48704;50.534;6.442;2024-01-30T07:05:12;96497.16;;;6.91;100.00
62634;BME280;48704;50.534;6.442;2024-01-30T07:07:38;96495.34;;;6.85;100.00
62634;BME280;48704;50.534;6.442;2024-01-30T07:10:04;96494.75;;;6.93;100.00
62634;BME280;48704;50.534;6.442;2024-01-30T07:12:30;96497.94;;;6.92;100.00
62634;BME280;48704;50.534;6.442;2024-01-30T07:14:55;96497.09;;;6.95;100.00
62634;BME280;48704;50.534;6.442;2024-01-30T07:17:21;96500.97;;;6.81;100.00
62634;BME280;48704;50.534;6.442;2024-01-30T07:19:46;96501.06;;;6.94;100.00
62634;BME280;48704;50.534;6.442;2024-01-30T07:22:12;96501.75;;;6.98;100.00
62634;BME280;48704;50.534;6.442;2024-01-30T07:24:42;96502.91;;;7.00;100.00
62634;BME280;48704;50.534;6.442;2024-01-30T07:27:09;96500.13;;;7.00;100.00
62634;BME280;48704;50.534;6.442;2024-01-30T07:29:35;96502.47;;;7.02;100.00
62634;BME280;48704;50.534;6.442;2024-01-30T07:32:00;96502.97;;;6.97;100.00
62634;BME280;48704;50.534;6.442;2024-01-30T07:34:25;96515.97;;;7.00;100.00
62634;BME280;48704;50.534;6.442;2024-01-30T07:36:50;96523.84;;;7.01;100.00
62634;BME280;48704;50.534;6.442;2024-01-30T07:39:16;96523.94;;;6.98;100.00
62634;BME280;48704;50.534;6.442;2024-01-30T07:41:41;96521.50;;;7.00;100.00
62634;BME280;48704;50.534;6.442;2024-01-30T07:44:06;96536.50;;;7.02;100.00
62634;BME280;48704;50.534;6.442;2024-01-30T07:46:31;96549.22;;;7.00;100.00
62634;BME280;48704;50.534;6.442;2024-01-30T07:48:57;96531.72;;;7.03;100.00
62634;BME280;48704;50.534;6.442;2024-01-30T07:51:22;96528.19;;;7.02;100.00
62634;BME280;48704;50.534;6.442;2024-01-30T07:53:47;96535.72;;;7.02;100.00
62634;BME280;48704;50.534;6.442;2024-01-30T07:56:12;96544.09;;;6.98;100.00
62634;BME280;48704;50.534;6.442;2024-01-30T07:58:39;96551.28;;;6.96;100.00
62634;BME280;48704;50.534;6.442;2024-01-30T08:01:04;96542.13;;;6.99;100.00
62634;BME280;48704;50.534;6.442;2024-01-30T08:03:30;96545.75;;;6.96;100.00
62634;BME280;48704;50.534;6.442;2024-01-30T08:05:55;96551.66;;;6.98;100.00
62634;BME280;48704;50.534;6.442;2024-01-30T08:08:20;96550.69;;;7.04;100.00
62634;BME280;48704;50.534;6.442;2024-01-30T08:10:46;96550.59;;;7.08;100.00
62634;BME280;48704;50.534;6.442;2024-01-30T08:13:11;96544.69;;;7.06;100.00
62634;BME280;48704;50.534;6.442;2024-01-30T08:15:36;96563.25;;;7.09;100.00
62634;BME280;48704;50.534;6.442;2024-01-30T08:18:02;96564.03;;;7.10;100.00
62634;BME280;48704;50.534;6.442;2024-01-30T08:20:27;96558.91;;;7.08;100.00
62634;BME280;48704;50.534;6.442;2024-01-30T08:22:52;96558.41;;;7.13;100.00
62634;BME280;48704;50.534;6.442;2024-01-30T08:25:18;96559.09;;;7.17;100.00
62634;BME280;48704;50.534;6.442;2024-01-30T08:27:43;96572.88;;;7.21;100.00
62634;BME280;48704;50.534;6.442;2024-01-30T08:30:09;96564.63;;;7.17;100.00
62634;BME280;48704;50.534;6.442;2024-01-30T08:32:34;96569.47;;;7.13;100.00
62634;BME280;48704;50.534;6.442;2024-01-30T08:35:00;96571.19;;;7.07;100.00
62634;BME280;48704;50.534;6.442;2024-01-30T08:37:28;96579.19;;;7.05;100.00
62634;BME280;48704;50.534;6.442;2024-01-30T08:39:54;96569.75;;;7.02;100.00
62634;BME280;48704;50.534;6.442;2024-01-30T08:42:19;96577.44;;;7.11;100.00
62634;BME280;48704;50.534;6.442;2024-01-30T08:44:47;96579.53;;;7.07;100.00
62634;BME280;48704;50.534;6.442;2024-01-30T08:47:13;96601.19;;;7.12;100.00
62634;BME280;48704;50.534;6.442;2024-01-30T08:49:38;96587.75;;;7.11;100.00
62634;BME280;48704;50.534;6.442;2024-01-30T08:52:03;96592.69;;;7.03;100.00
62634;BME280;48704;50.534;6.442;2024-01-30T08:54:29;96592.09;;;7.12;100.00
62634;BME280;48704;50.534;6.442;2024-01-30T08:56:54;96599.63;;;7.11;100.00
62634;BME280;48704;50.534;6.442;2024-01-30T08:59:21;96588.53;;;7.11;100.00
62634;BME280;48704;50.534;6.442;2024-01-30T09:01:46;96604.88;;;7.05;100.00
62634;BME280;48704;50.534;6.442;2024-01-30T09:04:12;96588.63;;;7.08;100.00
62634;BME280;48704;50.534;6.442;2024-01-30T09:06:37;96592.16;;;6.92;100.00
62634;BME280;48704;50.534;6.442;2024-01-30T09:09:04;96595.56;;;7.16;100.00
62634;BME280;48704;50.534;6.442;2024-01-30T09:11:30;96593.91;;;7.18;100.00
62634;BME280;48704;50.534;6.442;2024-01-30T09:13:55;96599.03;;;7.20;100.00
62634;BME280;48704;50.534;6.442;2024-01-30T09:16:20;96605.44;;;7.17;100.00
62634;BME280;48704;50.534;6.442;2024-01-30T09:18:46;96605.63;;;7.26;100.00
62634;BME280;48704;50.534;6.442;2024-01-30T09:21:11;96611.09;;;7.29;100.00
62634;BME280;48704;50.534;6.442;2024-01-30T09:23:36;96608.50;;;7.38;100.00
62634;BME280;48704;50.534;6.442;2024-01-30T09:26:01;96621.31;;;7.32;100.00
62634;BME280;48704;50.534;6.442;2024-01-30T09:28:27;96613.34;;;7.34;100.00
62634;BME280;48704;50.534;6.442;2024-01-30T09:30:52;96612.56;;;7.34;100.00
62634;BME280;48704;50.534;6.442;2024-01-30T09:33:17;96620.63;;;7.28;100.00
62634;BME280;48704;50.534;6.442;2024-01-30T09:35:42;96624.09;;;7.32;100.00
62634;BME280;48704;50.534;6.442;2024-01-30T09:38:08;96626.72;;;7.40;100.00
62634;BME280;48704;50.534;6.442;2024-01-30T09:40:33;96621.06;;;7.43;100.00
62634;BME280;48704;50.534;6.442;2024-01-30T09:42:58;96619.41;;;7.46;100.00
62634;BME280;48704;50.534;6.442;2024-01-30T09:45:25;96619.59;;;7.55;100.00
62634;BME280;48704;50.534;6.442;2024-01-30T09:47:52;96619.78;;;7.64;100.00
62634;BME280;48704;50.534;6.442;2024-01-30T09:50:18;96630.41;;;7.82;100.00
62634;BME280;48704;50.534;6.442;2024-01-30T09:52:47;96624.69;;;7.89;100.00
62634;BME280;48704;50.534;6.442;2024-01-30T09:55:13;96622.88;;;7.98;100.00
62634;BME280;48704;50.534;6.442;2024-01-30T09:57:39;96617.50;;;8.08;100.00
62634;BME280;48704;50.534;6.442;2024-01-30T10:00:05;96618.31;;;8.21;100.00
62634;BME280;48704;50.534;6.442;2024-01-30T10:02:34;96617.34;;;8.27;100.00
62634;BME280;48704;50.534;6.442;2024-01-30T10:05:00;96614.84;;;8.33;100.00
62634;BME280;48704;50.534;6.442;2024-01-30T10:07:25;96617.09;;;8.38;100.00
62634;BME280;48704;50.534;6.442;2024-01-30T10:09:52;96615.44;;;8.41;100.00
62634;BME280;48704;50.534;6.442;2024-01-30T10:12:18;96606.75;;;8.38;100.00
62634;BME280;48704;50.534;6.442;2024-01-30T10:14:44;96613.78;;;8.43;100.00
62634;BME280;48704;50.534;6.442;2024-01-30T10:17:10;96613.50;;;8.54;100.00
62634;BME280;48704;50.534;6.442;2024-01-30T10:19:38;96610.06;;;8.62;100.00
62634;BME280;48704;50.534;6.442;2024-01-30T10:22:05;96622.63;;;8.67;100.00
62634;BME280;48704;50.534;6.442;2024-01-30T10:24:30;96613.06;;;8.68;100.00
62634;BME280;48704;50.534;6.442;2024-01-30T10:26:56;96623.41;;;8.67;100.00
62634;BME280;48704;50.534;6.442;2024-01-30T10:29:22;96617.75;;;8.71;100.00
62634;BME280;48704;50.534;6.442;2024-01-30T10:32:04;96619.22;;;8.76;100.00
62634;BME280;48704;50.534;6.442;2024-01-30T10:34:30;96611.47;;;8.83;100.00
62634;BME280;48704;50.534;6.442;2024-01-30T10:37:09;96607.91;;;8.83;100.00
62634;BME280;48704;50.534;6.442;2024-01-30T10:39:40;96613.84;;;8.68;100.00
62634;BME280;48704;50.534;6.442;2024-01-30T10:42:13;96608.00;;;8.79;100.00
62634;BME280;48704;50.534;6.442;2024-01-30T10:44:57;96611.91;;;8.82;100.00
62634;BME280;48704;50.534;6.442;2024-01-30T10:47:28;96607.34;;;8.88;100.00
62634;BME280;48704;50.534;6.442;2024-01-30T10:49:54;96600.34;;;8.96;100.00
62634;BME280;48704;50.534;6.442;2024-01-30T10:52:20;96606.56;;;9.00;100.00
62634;BME280;48704;50.534;6.442;2024-01-30T10:54:46;96601.56;;;8.95;100.00
62634;BME280;48704;50.534;6.442;2024-01-30T10:57:13;96594.78;;;8.96;100.00
62634;BME280;48704;50.534;6.442;2024-01-30T10:59:41;96600.91;;;9.03;100.00
62634;BME280;48704;50.534;6.442;2024-01-30T11:02:07;96591.72;;;9.19;100.00
62634;BME280;48704;50.534;6.442;2024-01-30T11:04:36;96583.69;;;9.21;100.00
62634;BME280;48704;50.534;6.442;2024-01-30T11:07:02;96580.47;;;9.23;100.00
62634;BME280;48704;50.534;6.442;2024-01-30T11:09:29;96580.22;;;9.43;100.00
62634;BME280;48704;50.534;6.442;2024-01-30T11:11:58;96576.44;;;9.49;100.00
62634;BME280;48704;50.534;6.442;2024-01-30T11:14:29;96578.78;;;9.51;100.00
62634;BME280;48704;50.534;6.442;2024-01-30T11:16:58;96582.91;;;9.46;100.00
62634;BME280;48704;50.534;6.442;2024-01-30T11:19:30;96571.78;;;9.33;100.00
62634;BME280;48704;50.534;6.442;2024-01-30T11:21:56;96575.56;;;9.39;100.00
62634;BME280;48704;50.534;6.442;2024-01-30T11:24:24;96577.66;;;9.35;100.00
62634;BME280;48704;50.534;6.442;2024-01-30T11:26:55;96580.00;;;9.37;100.00
62634;BME280;48704;50.534;6.442;2024-01-30T11:29:25;96577.34;;;9.33;100.00
62634;BME280;48704;50.534;6.442;2024-01-30T11:31:54;96577.59;;;9.26;100.00
62634;BME280;48704;50.534;6.442;2024-01-30T11:34:21;96568.91;;;9.24;100.00
62634;BME280;48704;50.534;6.442;2024-01-30T11:36:51;96577.59;;;9.26;100.00
62634;BME280;48704;50.534;6.442;2024-01-30T11:39:24;96587.16;;;9.25;100.00
62634;BME280;48704;50.534;6.442;2024-01-30T11:41:50;96577.00;;;9.31;100.00
62634;BME280;48704;50.534;6.442;2024-01-30T11:44:16;96572.31;;;9.28;100.00
62634;BME280;48704;50.534;6.442;2024-01-30T11:46:42;96577.66;;;9.35;100.00
62634;BME280;48704;50.534;6.442;2024-01-30T11:49:07;96577.88;;;9.28;100.00
62634;BME280;48704;50.534;6.442;2024-01-30T11:51:32;96581.00;;;9.30;100.00
62634;BME280;48704;50.534;6.442;2024-01-30T11:53:58;96593.94;;;9.24;100.00
62634;BME280;48704;50.534;6.442;2024-01-30T11:56:24;96584.47;;;9.22;100.00
62634;BME280;48704;50.534;6.442;2024-01-30T11:58:50;96592.28;;;9.27;100.00
62634;BME280;48704;50.534;6.442;2024-01-30T12:01:17;96574.56;;;9.33;100.00
62634;BME280;48704;50.534;6.442;2024-01-30T12:03:42;96577.44;;;9.43;100.00
62634;BME280;48704;50.534;6.442;2024-01-30T12:06:08;96576.38;;;9.27;100.00
62634;BME280;48704;50.534;6.442;2024-01-30T12:08:33;96574.22;;;9.31;100.00
62634;BME280;48704;50.534;6.442;2024-01-30T12:10:58;96571.69;;;9.24;100.00
62634;BME280;48704;50.534;6.442;2024-01-30T12:13:26;96565.22;;;9.27;100.00
62634;BME280;48704;50.534;6.442;2024-01-30T12:15:51;96572.56;;;9.21;100.00
62634;BME280;48704;50.534;6.442;2024-01-30T12:18:20;96567.69;;;9.25;100.00
62634;BME280;48704;50.534;6.442;2024-01-30T12:20:45;96573.47;;;9.18;100.00
62634;BME280;48704;50.534;6.442;2024-01-30T12:23:12;96571.91;;;9.17;100.00
62634;BME280;48704;50.534;6.442;2024-01-30T12:25:37;96568.13;;;9.11;100.00
62634;BME280;48704;50.534;6.442;2024-01-30T12:28:03;96572.47;;;9.25;100.00
62634;BME280;48704;50.534;6.442;2024-01-30T12:30:29;96570.13;;;9.23;100.00
62634;BME280;48704;50.534;6.442;2024-01-30T12:32:55;96564.09;;;9.37;100.00
62634;BME280;48704;50.534;6.442;2024-01-30T12:35:20;96587.13;;;9.38;100.00
62634;BME280;48704;50.534;6.442;2024-01-30T12:37:47;96592.59;;;9.42;100.00
62634;BME280;48704;50.534;6.442;2024-01-30T12:40:17;96580.56;;;9.45;100.00
62634;BME280;48704;50.534;6.442;2024-01-30T12:42:43;96605.25;;;9.68;100.00
62634;BME280;48704;50.534;6.442;2024-01-30T12:45:11;96583.63;;;9.72;100.00
62634;BME280;48704;50.534;6.442;2024-01-30T12:47:36;96590.13;;;10.03;100.00
62634;BME280;48704;50.534;6.442;2024-01-30T12:50:01;96584.88;;;10.05;100.00
62634;BME280;48704;50.534;6.442;2024-01-30T12:52:28;96600.38;;;10.06;100.00